createdAt,value
2022-07-29T00:01:43.980Z,99556.03
2022-07-29T00:04:11.711Z,99552.78
2022-07-29T00:06:39.126Z,99555.50
2022-07-29T00:09:06.857Z,99548.44
2022-07-29T00:11:34.079Z,99551.16
2022-07-29T00:14:02.050Z,99553.66
2022-07-29T00:16:29.749Z,99554.50
2022-07-29T00:18:59.481Z,99546.38
2022-07-29T00:21:28.974Z,99548.00
2022-07-29T00:23:56.558Z,99554.03
2022-07-29T00:26:23.689Z,99555.38
2022-07-29T00:28:50.732Z,99556.50
2022-07-29T00:31:18.283Z,99555.69
2022-07-29T00:33:45.409Z,99548.69
2022-07-29T00:36:12.606Z,99556.00
2022-07-29T00:38:42.505Z,99560.34
2022-07-29T00:41:09.594Z,99551.97
2022-07-29T00:43:36.630Z,99551.47
2022-07-29T00:46:04.326Z,99553.13
2022-07-29T00:48:31.653Z,99548.47
2022-07-29T00:51:02.254Z,99556.88
2022-07-29T00:53:32.011Z,99562.03
2022-07-29T00:55:59.683Z,99555.03
2022-07-29T00:58:28.190Z,99549.34
2022-07-29T01:00:55.867Z,99549.91
2022-07-29T01:03:23.137Z,99546.69
2022-07-29T01:05:51.953Z,99542.88
2022-07-29T01:08:21.310Z,99544.50
2022-07-29T01:10:50.138Z,99542.88
2022-07-29T01:13:18.611Z,99536.91
2022-07-29T01:15:55.570Z,99547.19
2022-07-29T01:18:31.791Z,99545.56
2022-07-29T01:21:46.205Z,99536.66
2022-07-29T01:24:49.559Z,99538.28
2022-07-29T01:27:50.084Z,99532.06
2022-07-29T01:30:17.847Z,99536.69
2022-07-29T01:32:52.592Z,99535.34
2022-07-29T01:35:42.847Z,99541.84
2022-07-29T01:39:27.701Z,99543.47
2022-07-29T01:42:46.087Z,99539.69
2022-07-29T01:45:22.628Z,99541.03
2022-07-29T01:48:45.657Z,99531.84
2022-07-29T01:51:25.017Z,99528.91
2022-07-29T01:54:24.175Z,99524.03
2022-07-29T01:56:56.186Z,99531.03
2022-07-29T01:59:26.614Z,99527.25
2022-07-29T02:01:59.570Z,99532.69
2022-07-29T02:04:30.550Z,99530.50
2022-07-29T02:07:06.226Z,99529.44
2022-07-29T02:09:37.522Z,99535.63
2022-07-29T02:12:14.488Z,99528.31
2022-07-29T02:14:53.883Z,99516.41
2022-07-29T02:17:38.918Z,99523.91
2022-07-29T02:20:10.622Z,99518.03
2022-07-29T02:22:41.976Z,99510.16
2022-07-29T02:25:14.031Z,99514.22
2022-07-29T02:27:44.232Z,99513.09
2022-07-29T02:30:13.864Z,99509.34
2022-07-29T02:32:43.492Z,99507.19
2022-07-29T02:35:14.282Z,99513.13
2022-07-29T02:37:44.792Z,99514.22
2022-07-29T02:40:16.344Z,99516.94
2022-07-29T02:42:47.391Z,99516.38
2022-07-29T02:45:15.110Z,99516.63
2022-07-29T02:47:50.605Z,99514.22
2022-07-29T02:50:33.755Z,99517.16
2022-07-29T02:53:26.305Z,99511.19
2022-07-29T02:56:02.887Z,99505.25
2022-07-29T02:58:43.523Z,99498.22
2022-07-29T03:01:30.327Z,99503.88
2022-07-29T03:04:04.921Z,99499.28
2022-07-29T03:06:38.459Z,99506.00
2022-07-29T03:09:13.359Z,99507.91
2022-07-29T03:11:49.780Z,99504.97
2022-07-29T03:14:21.017Z,99512.78
2022-07-29T03:16:51.740Z,99507.38
2022-07-29T03:19:21.373Z,99503.31
2022-07-29T03:21:49.199Z,99506.81
2022-07-29T03:24:35.430Z,99515.19
2022-07-29T03:27:04.731Z,99514.91
2022-07-29T03:29:34.373Z,99517.31
2022-07-29T03:32:08.027Z,99510.25
2022-07-29T03:34:38.391Z,99512.94
2022-07-29T03:37:07.307Z,99507.03
2022-07-29T03:39:41.500Z,99508.63
2022-07-29T03:42:15.005Z,99509.69
2022-07-29T03:44:46.471Z,99510.75
2022-07-29T03:47:17.781Z,99515.91
2022-07-29T03:49:51.202Z,99517.00
2022-07-29T03:52:19.859Z,99529.41
2022-07-29T03:54:47.456Z,99524.66
2022-07-29T03:57:17.331Z,99523.03
2022-07-29T03:59:46.270Z,99533.59
2022-07-29T04:02:14.979Z,99526.59
2022-07-29T04:04:45.154Z,99534.16
2022-07-29T04:07:16.717Z,99530.91
2022-07-29T04:09:43.904Z,99526.03
2022-07-29T04:12:11.466Z,99525.00
2022-07-29T04:14:38.994Z,99524.47
2022-07-29T04:17:06.427Z,99524.22
2022-07-29T04:19:34.245Z,99526.13
2022-07-29T04:22:03.267Z,99522.09
2022-07-29T04:24:30.765Z,99525.06
2022-07-29T04:26:57.923Z,99524.28
2022-07-29T04:29:25.466Z,99524.56
2022-07-29T04:31:52.585Z,99518.59
2022-07-29T04:34:20.262Z,99518.59
2022-07-29T04:36:48.249Z,99513.69
2022-07-29T04:39:20.656Z,99509.84
2022-07-29T04:41:52.477Z,99506.56
2022-07-29T04:44:22.920Z,99510.63
2022-07-29T04:46:56.502Z,99505.94
2022-07-29T04:49:24.354Z,99500.47
2022-07-29T04:51:51.628Z,99497.16
2022-07-29T04:54:19.625Z,99490.00
2022-07-29T04:56:47.461Z,99496.16
2022-07-29T04:59:14.905Z,99496.31
2022-07-29T05:01:42.387Z,99491.09
2022-07-29T05:04:10.076Z,99494.25
2022-07-29T05:06:37.319Z,99489.78
2022-07-29T05:09:04.832Z,99494.75
2022-07-29T05:11:32.141Z,99488.88
2022-07-29T05:13:59.225Z,99494.47
2022-07-29T05:16:26.960Z,99495.91
2022-07-29T05:18:54.186Z,99493.53
2022-07-29T05:21:21.250Z,99491.75
2022-07-29T05:23:48.616Z,99496.19
2022-07-29T05:26:15.883Z,99488.06
2022-07-29T05:28:42.968Z,99488.25
2022-07-29T05:31:10.775Z,99492.06
2022-07-29T05:33:38.486Z,99488.28
2022-07-29T05:36:09.170Z,99487.53
2022-07-29T05:38:37.508Z,99478.09
2022-07-29T05:41:06.024Z,99486.00
2022-07-29T05:43:33.532Z,99485.41
2022-07-29T05:46:01.264Z,99482.00
2022-07-29T05:48:28.904Z,99483.84
2022-07-29T05:50:56.557Z,99478.59
2022-07-29T05:53:24.477Z,99488.28
2022-07-29T05:55:53.127Z,99490.66
2022-07-29T05:58:21.306Z,99481.28
2022-07-29T06:00:48.725Z,99487.28
2022-07-29T06:03:16.632Z,99489.66
2022-07-29T06:05:43.790Z,99483.94
2022-07-29T06:08:11.428Z,99487.38
2022-07-29T06:10:39.176Z,99481.88
2022-07-29T06:13:06.336Z,99473.44
2022-07-29T06:15:34.378Z,99476.22
2022-07-29T06:18:02.264Z,99477.53
2022-07-29T06:20:31.873Z,99480.81
2022-07-29T06:23:00.225Z,99476.00
2022-07-29T06:25:31.716Z,99481.47
2022-07-29T06:27:59.281Z,99479.28
2022-07-29T06:30:27.629Z,99479.94
2022-07-29T06:32:54.797Z,99477.72
2022-07-29T06:35:41.031Z,99479.00
2022-07-29T06:38:29.859Z,99482.38
2022-07-29T06:41:01.302Z,99491.59
2022-07-29T06:43:52.305Z,99485.47
2022-07-29T06:46:23.408Z,99484.50
2022-07-29T06:48:52.732Z,99481.59
2022-07-29T06:51:23.301Z,99492.22
2022-07-29T06:54:01.603Z,99479.75
2022-07-29T06:56:42.796Z,99482.91
2022-07-29T06:59:12.174Z,99481.19
2022-07-29T07:01:42.695Z,99479.63
2022-07-29T07:04:11.143Z,99476.47
2022-07-29T07:06:39.372Z,99469.63
2022-07-29T07:09:07.459Z,99468.72
2022-07-29T07:11:35.167Z,99470.72
2022-07-29T07:14:04.471Z,99463.47
2022-07-29T07:16:33.114Z,99461.34
2022-07-29T07:19:01.330Z,99453.13
2022-07-29T07:21:30.523Z,99455.72
2022-07-29T07:23:58.886Z,99457.47
2022-07-29T07:26:26.976Z,99457.81
2022-07-29T07:28:54.433Z,99464.16
2022-07-29T07:31:21.531Z,99452.44
2022-07-29T07:33:48.730Z,99459.19
2022-07-29T07:36:16.179Z,99456.75
2022-07-29T07:38:43.275Z,99455.09
2022-07-29T07:41:10.506Z,99455.25
2022-07-29T07:43:38.073Z,99454.44
2022-07-29T07:46:05.924Z,99451.03
2022-07-29T07:48:35.973Z,99454.44
2022-07-29T07:51:03.685Z,99456.63
2022-07-29T07:53:31.663Z,99463.09
2022-07-29T07:56:15.701Z,99463.22
2022-07-29T07:58:43.678Z,99459.56
2022-07-29T08:01:11.392Z,99461.75
2022-07-29T08:03:39.769Z,99470.09
2022-07-29T08:06:07.679Z,99462.06
2022-07-29T08:08:35.283Z,99461.78
2022-07-29T08:11:08.955Z,99460.84
2022-07-29T08:13:39.373Z,99454.66
2022-07-29T08:16:14.390Z,99452.84
2022-07-29T08:18:46.256Z,99450.31
2022-07-29T08:21:15.637Z,99446.88
2022-07-29T08:23:58.662Z,99448.81
2022-07-29T08:26:28.367Z,99445.50
2022-07-29T08:28:55.692Z,99458.97
2022-07-29T08:31:22.964Z,99454.91
2022-07-29T08:33:50.119Z,99450.56
2022-07-29T08:36:17.564Z,99450.56
2022-07-29T08:38:44.741Z,99455.94
2022-07-29T08:41:12.335Z,99446.13
2022-07-29T08:43:41.981Z,99450.13
2022-07-29T08:46:09.466Z,99447.38
2022-07-29T08:48:37.782Z,99436.94
2022-07-29T08:51:07.895Z,99439.69
2022-07-29T08:53:35.759Z,99441.44
2022-07-29T08:56:03.500Z,99433.13
2022-07-29T08:58:36.822Z,99441.03
2022-07-29T09:01:12.206Z,99435.31
2022-07-29T09:03:41.778Z,99434.41
2022-07-29T09:06:09.444Z,99434.25
2022-07-29T09:08:36.589Z,99430.69
2022-07-29T09:11:05.285Z,99415.91
2022-07-29T09:13:33.197Z,99424.31
2022-07-29T09:16:02.573Z,99417.31
2022-07-29T09:18:45.913Z,99426.13
2022-07-29T09:21:37.519Z,99414.91
2022-07-29T09:24:12.769Z,99422.59
2022-07-29T09:26:43.959Z,99415.97
2022-07-29T09:29:17.083Z,99409.25
2022-07-29T09:31:51.108Z,99404.38
2022-07-29T09:34:28.050Z,99406.91
2022-07-29T09:36:56.977Z,99405.34
2022-07-29T09:39:47.246Z,99396.03
2022-07-29T09:42:16.749Z,99404.56
2022-07-29T09:44:49.593Z,99391.88
2022-07-29T09:47:19.594Z,99386.66
2022-07-29T09:50:01.238Z,99384.03
2022-07-29T09:52:30.962Z,99385.19
2022-07-29T09:55:10.109Z,99387.88
2022-07-29T09:57:41.367Z,99384.91
2022-07-29T10:00:12.969Z,99375.81
2022-07-29T10:02:43.505Z,99387.09
2022-07-29T10:05:36.116Z,99371.38
2022-07-29T10:08:04.762Z,99366.41
2022-07-29T10:10:36.612Z,99376.94
2022-07-29T10:13:14.926Z,99361.66
2022-07-29T10:15:47.277Z,99366.13
2022-07-29T10:18:18.273Z,99368.47
2022-07-29T10:20:46.244Z,99364.84
2022-07-29T10:23:13.650Z,99369.69
2022-07-29T10:25:46.024Z,99368.47
2022-07-29T10:28:16.556Z,99369.81
2022-07-29T10:30:46.819Z,99365.88
2022-07-29T10:33:19.970Z,99356.22
2022-07-29T10:36:20.444Z,99365.00
2022-07-29T10:42:29.840Z,99359.53
2022-07-29T10:45:04.839Z,99356.44
2022-07-29T10:47:35.228Z,99351.47
2022-07-29T10:50:07.131Z,99348.59
2022-07-29T10:52:58.060Z,99335.63
2022-07-29T10:55:45.536Z,99340.84
2022-07-29T10:58:26.324Z,99339.66
2022-07-29T11:00:56.323Z,99337.84
2022-07-29T11:03:49.309Z,99334.38
2022-07-29T11:06:26.822Z,99332.66
2022-07-29T11:09:30.175Z,99337.94
2022-07-29T11:12:03.664Z,99345.53
2022-07-29T11:14:52.864Z,99338.56
2022-07-29T11:17:20.570Z,99338.75
2022-07-29T11:19:52.081Z,99334.03
2022-07-29T11:22:45.801Z,99339.66
2022-07-29T11:25:17.591Z,99337.94
2022-07-29T11:27:48.340Z,99327.66
2022-07-29T11:30:16.270Z,99323.41
2022-07-29T11:32:48.566Z,99319.22
2022-07-29T11:35:38.270Z,99315.47
2022-07-29T11:38:28.884Z,99301.13
2022-07-29T11:41:18.556Z,99307.81
2022-07-29T11:43:59.185Z,99298.69
2022-07-29T11:46:51.231Z,99295.19
2022-07-29T11:49:32.352Z,99296.94
2022-07-29T11:52:04.841Z,99303.78
2022-07-29T11:54:57.753Z,99301.44
2022-07-29T11:57:37.133Z,99303.09
2022-07-29T12:00:12.318Z,99296.53
2022-07-29T12:02:48.712Z,99294.03
2022-07-29T12:05:22.303Z,99297.28
2022-07-29T12:08:20.614Z,99292.63
2022-07-29T12:10:50.793Z,99286.16
2022-07-29T12:13:22.216Z,99289.19
2022-07-29T12:16:00.137Z,99282.28
2022-07-29T12:18:29.148Z,99274.53
2022-07-29T12:21:07.358Z,99280.75
2022-07-29T12:23:36.064Z,99276.06
2022-07-29T12:26:07.418Z,99263.78
2022-07-29T12:28:41.493Z,99282.59
2022-07-29T12:31:43.304Z,99270.78
2022-07-29T12:34:04.030Z,99269.00
2022-07-29T12:36:31.385Z,99268.50
2022-07-29T12:38:58.525Z,99265.91
2022-07-29T12:41:28.220Z,99264.00
2022-07-29T12:43:56.088Z,99267.91
2022-07-29T12:46:23.505Z,99250.72
2022-07-29T12:48:56.131Z,99241.75
2022-07-29T12:51:32.405Z,99245.81
2022-07-29T12:54:16.917Z,99239.50
2022-07-29T12:56:46.082Z,99255.97
2022-07-29T12:59:19.961Z,99249.56
2022-07-29T13:01:50.994Z,99248.28
2022-07-29T13:04:33.126Z,99249.84
2022-07-29T13:07:08.515Z,99248.59
2022-07-29T13:09:47.041Z,99225.88
2022-07-29T13:12:16.166Z,99238.31
2022-07-29T13:14:49.726Z,99236.66
2022-07-29T13:17:23.963Z,99237.50
2022-07-29T13:20:13.391Z,99229.66
2022-07-29T13:22:45.444Z,99233.84
2022-07-29T13:25:13.224Z,99237.63
2022-07-29T13:27:41.548Z,99237.41
2022-07-29T13:30:11.593Z,99226.47
2022-07-29T13:32:39.801Z,99217.06
2022-07-29T13:35:09.340Z,99219.78
2022-07-29T13:37:40.670Z,99220.09
2022-07-29T13:40:10.335Z,99209.91
2022-07-29T13:42:38.086Z,99203.66
2022-07-29T13:45:07.491Z,99185.88
2022-07-29T13:47:35.118Z,99200.31
2022-07-29T13:50:04.038Z,99193.13
2022-07-29T13:52:34.331Z,99206.06
2022-07-29T13:55:02.513Z,99203.78
2022-07-29T13:57:30.533Z,99205.13
2022-07-29T13:59:58.334Z,99207.75
2022-07-29T14:02:26.460Z,99200.69
2022-07-29T14:04:55.482Z,99187.28
2022-07-29T14:07:23.660Z,99191.59
2022-07-29T14:09:52.098Z,99179.53
2022-07-29T14:12:19.976Z,99175.41
2022-07-29T14:14:47.701Z,99173.63
2022-07-29T14:17:16.424Z,99175.47
2022-07-29T14:19:44.020Z,99181.88
2022-07-29T14:22:11.137Z,99174.50
2022-07-29T14:24:39.597Z,99179.44
2022-07-29T14:27:08.671Z,99175.63
2022-07-29T14:29:38.156Z,99179.78
2022-07-29T14:32:11.392Z,99180.59
2022-07-29T14:34:39.262Z,99171.53
2022-07-29T14:37:07.487Z,99165.22
2022-07-29T14:39:43.104Z,99158.72
2022-07-29T14:42:12.847Z,99160.09
2022-07-29T14:44:42.293Z,99145.50
2022-07-29T14:47:10.063Z,99148.13
2022-07-29T14:49:37.562Z,99131.31
2022-07-29T14:52:05.391Z,99139.16
2022-07-29T14:54:32.667Z,99137.88
2022-07-29T14:57:00.110Z,99153.09
2022-07-29T14:59:27.464Z,99153.19
2022-07-29T15:01:55.092Z,99161.97
2022-07-29T15:04:22.793Z,99170.09
2022-07-29T15:06:50.098Z,99170.81
2022-07-29T15:09:17.606Z,99176.44
2022-07-29T15:11:45.418Z,99181.41
2022-07-29T15:14:12.677Z,99187.34
2022-07-29T15:16:43.677Z,99192.72
2022-07-29T15:19:11.857Z,99183.50
2022-07-29T15:21:41.363Z,99195.28
2022-07-29T15:24:08.870Z,99192.31
2022-07-29T15:26:36.306Z,99197.59
2022-07-29T15:29:03.791Z,99205.44
2022-07-29T15:31:31.194Z,99206.56
2022-07-29T15:34:02.411Z,99202.72
2022-07-29T15:39:21.688Z,99206.53
2022-07-29T15:41:50.842Z,99220.94
2022-07-29T15:44:18.790Z,99221.00
2022-07-29T15:47:04.615Z,99226.00
2022-07-29T15:49:47.829Z,99230.81
2022-07-29T15:52:25.753Z,99237.03
2022-07-29T15:54:57.694Z,99241.03
2022-07-29T15:57:25.991Z,99257.63
2022-07-29T15:59:53.336Z,99274.53
2022-07-29T16:02:20.817Z,99287.09
2022-07-29T16:04:48.521Z,99303.31
2022-07-29T16:07:16.173Z,99318.25
2022-07-29T16:09:49.280Z,99323.06
2022-07-29T16:12:20.678Z,99319.22
2022-07-29T16:14:49.475Z,99323.78
2022-07-29T16:17:17.370Z,99324.91
2022-07-29T16:19:45.828Z,99326.16
2022-07-29T16:22:13.854Z,99324.72
2022-07-29T16:24:41.683Z,99320.19
2022-07-29T16:27:09.459Z,99326.13
2022-07-29T16:29:37.324Z,99333.25
2022-07-29T16:32:06.560Z,99327.03
2022-07-29T16:34:34.294Z,99335.69
2022-07-29T16:37:01.619Z,99332.69
2022-07-29T16:39:29.526Z,99340.66
2022-07-29T16:42:00.304Z,99337.19
2022-07-29T16:44:28.843Z,99337.59
2022-07-29T16:46:58.680Z,99334.09
2022-07-29T16:49:27.864Z,99343.19
2022-07-29T16:51:55.029Z,99338.19
2022-07-29T16:54:22.450Z,99345.50
2022-07-29T16:56:49.799Z,99352.00
2022-07-29T16:59:17.080Z,99343.03
2022-07-29T17:01:44.411Z,99340.47
2022-07-29T17:04:14.783Z,99342.59
2022-07-29T17:06:42.558Z,99334.56
2022-07-29T17:09:11.917Z,99332.81
2022-07-29T17:11:54.049Z,99329.44
2022-07-29T17:14:29.152Z,99329.94
2022-07-29T17:17:02.310Z,99325.75
2022-07-29T17:19:35.190Z,99321.78
2022-07-29T17:22:14.297Z,99317.16
2022-07-29T17:24:47.488Z,99301.72
2022-07-29T17:27:15.985Z,99296.59
2022-07-29T17:29:43.289Z,99301.31
2022-07-29T17:32:11.798Z,99291.50
2022-07-29T17:34:42.261Z,99280.19
2022-07-29T17:37:11.530Z,99267.16
2022-07-29T17:39:41.188Z,99259.94
2022-07-29T17:42:13.410Z,99249.03
2022-07-29T17:44:41.505Z,99251.47
2022-07-29T17:47:15.875Z,99240.69
2022-07-29T17:49:45.524Z,99248.13
2022-07-29T17:52:12.683Z,99242.78
2022-07-29T17:54:39.870Z,99244.22
2022-07-29T17:57:07.179Z,99254.19
2022-07-29T17:59:34.534Z,99263.41
2022-07-29T18:02:02.583Z,99267.44
2022-07-29T18:04:31.313Z,99272.25
2022-07-29T18:06:58.559Z,99266.75
2022-07-29T18:09:26.007Z,99260.34
2022-07-29T18:11:53.591Z,99250.66
2022-07-29T18:14:20.845Z,99236.66
2022-07-29T18:16:48.046Z,99237.66
2022-07-29T18:19:16.335Z,99246.28
2022-07-29T18:21:53.904Z,99247.94
2022-07-29T18:24:27.529Z,99251.97
2022-07-29T18:26:55.225Z,99258.84
2022-07-29T18:29:22.505Z,99272.25
2022-07-29T18:31:50.223Z,99264.34
2022-07-29T18:34:17.592Z,99264.97
2022-07-29T18:36:45.915Z,99254.59
2022-07-29T18:39:20.271Z,99264.25
2022-07-29T18:41:52.109Z,99271.63
2022-07-29T18:44:22.029Z,99288.19
2022-07-29T18:46:52.183Z,99290.56
2022-07-29T18:49:19.987Z,99294.78
2022-07-29T18:51:49.076Z,99301.03
2022-07-29T18:54:20.458Z,99295.41
2022-07-29T18:56:47.676Z,99299.97
2022-07-29T18:59:17.195Z,99314.06
2022-07-29T19:01:44.608Z,99323.06
2022-07-29T19:04:12.799Z,99346.22
2022-07-29T19:06:40.964Z,99358.56
2022-07-29T19:09:08.893Z,99380.19
2022-07-29T19:11:38.006Z,99365.25
2022-07-29T19:14:06.454Z,99350.13
2022-07-29T19:16:34.207Z,99351.34
2022-07-29T19:19:05.602Z,99358.22
2022-07-29T19:21:33.111Z,99375.75
2022-07-29T19:24:06.220Z,99366.53
2022-07-29T19:26:38.602Z,99359.28
2022-07-29T19:29:06.264Z,99362.63
2022-07-29T19:31:33.370Z,99350.72
2022-07-29T19:34:00.947Z,99353.56
2022-07-29T19:36:32.912Z,99346.00
2022-07-29T19:39:00.594Z,99347.53
2022-07-29T19:41:28.503Z,99329.47
2022-07-29T19:43:55.803Z,99319.00
2022-07-29T19:46:24.999Z,99322.63
2022-07-29T19:48:53.497Z,99320.47
2022-07-29T19:51:21.583Z,99324.06
2022-07-29T19:53:49.906Z,99311.56
2022-07-29T19:56:17.542Z,99308.47
2022-07-29T19:58:44.720Z,99307.97
2022-07-29T20:01:12.658Z,99311.19
2022-07-29T20:03:40.497Z,99302.53
2022-07-29T20:06:08.549Z,99303.22
2022-07-29T20:08:35.752Z,99300.13
2022-07-29T20:11:03.547Z,99299.81
2022-07-29T20:13:32.996Z,99295.16
2022-07-29T20:16:01.977Z,99297.50
2022-07-29T20:18:29.504Z,99298.59
2022-07-29T20:20:57.584Z,99298.69
2022-07-29T20:23:24.890Z,99285.56
2022-07-29T20:25:52.661Z,99277.53
2022-07-29T20:28:22.552Z,99271.25
2022-07-29T20:30:49.625Z,99280.53
2022-07-29T20:33:17.113Z,99278.81
2022-07-29T20:35:44.161Z,99275.88
2022-07-29T20:38:15.024Z,99273.47
2022-07-29T20:40:45.756Z,99274.69
2022-07-29T20:43:12.831Z,99280.41
2022-07-29T20:45:40.043Z,99277.91
2022-07-29T20:48:08.287Z,99281.31
2022-07-29T20:50:35.892Z,99262.78
2022-07-29T20:53:03.258Z,99263.56
2022-07-29T20:55:32.083Z,99264.19
2022-07-29T20:57:59.306Z,99273.47
2022-07-29T21:00:26.573Z,99269.13
2022-07-29T21:02:54.282Z,99271.66
2022-07-29T21:05:21.630Z,99275.69
2022-07-29T21:07:49.044Z,99289.31
2022-07-29T21:10:18.317Z,99285.56
2022-07-29T21:12:48.865Z,99278.50
2022-07-29T21:15:16.255Z,99280.22
2022-07-29T21:17:49.603Z,99293.94
2022-07-29T21:20:19.493Z,99285.53
2022-07-29T21:22:47.322Z,99285.34
2022-07-29T21:25:14.465Z,99288.66
2022-07-29T21:28:00.125Z,99298.75
2022-07-29T21:30:28.706Z,99303.97
2022-07-29T21:32:55.914Z,99299.31
2022-07-29T21:36:06.908Z,99302.38
2022-07-29T21:38:10.934Z,99309.72
2022-07-29T21:40:38.334Z,99315.47
2022-07-29T21:43:05.967Z,99316.56
2022-07-29T21:45:33.466Z,99307.88
2022-07-29T21:48:00.806Z,99315.59
2022-07-29T21:50:27.887Z,99318.91
2022-07-29T21:52:55.573Z,99318.91
2022-07-29T21:55:23.136Z,99318.09
2022-07-29T21:57:54.246Z,99330.09
2022-07-29T22:00:25.469Z,99323.84
2022-07-29T22:03:02.294Z,99322.81
2022-07-29T22:05:31.112Z,99333.19
2022-07-29T22:07:58.776Z,99332.69
2022-07-29T22:10:29.451Z,99323.69
2022-07-29T22:12:59.832Z,99324.59
2022-07-29T22:15:28.634Z,99315.44
2022-07-29T22:17:56.215Z,99313.38
2022-07-29T22:20:24.227Z,99310.28
2022-07-29T22:22:52.098Z,99315.06
2022-07-29T22:25:19.775Z,99306.72
2022-07-29T22:27:47.258Z,99307.22
2022-07-29T22:30:14.976Z,99300.78
2022-07-29T22:32:42.270Z,99297.50
2022-07-29T22:35:10.703Z,99293.19
2022-07-29T22:37:37.887Z,99286.63
2022-07-29T22:40:09.306Z,99280.63
2022-07-29T22:42:36.877Z,99283.41
2022-07-29T22:45:10.633Z,99266.53
2022-07-29T22:47:47.921Z,99263.88
2022-07-29T22:50:18.349Z,99271.59
2022-07-29T22:52:47.069Z,99269.38
2022-07-29T22:55:15.427Z,99270.16
2022-07-29T22:57:42.871Z,99259.81
2022-07-29T23:00:11.660Z,99262.63
2022-07-29T23:02:40.215Z,99259.81
2022-07-29T23:05:11.433Z,99253.28
2022-07-29T23:07:38.907Z,99236.16
2022-07-29T23:10:06.563Z,99238.94
2022-07-29T23:12:33.923Z,99230.09
2022-07-29T23:15:01.456Z,99235.66
2022-07-29T23:17:32.148Z,99240.84
2022-07-29T23:20:07.912Z,99230.50
2022-07-29T23:22:36.080Z,99235.34
2022-07-29T23:25:04.973Z,99220.91
2022-07-29T23:27:32.826Z,99216.22
2022-07-29T23:29:59.894Z,99206.13
2022-07-29T23:32:27.125Z,99210.78
2022-07-29T23:34:54.583Z,99186.91
2022-07-29T23:37:21.966Z,99189.69
2022-07-29T23:39:49.103Z,99194.59
2022-07-29T23:42:16.730Z,99187.63
2022-07-29T23:44:43.709Z,99187.31
2022-07-29T23:47:10.844Z,99190.53
2022-07-29T23:49:38.214Z,99189.66
2022-07-29T23:52:06.163Z,99193.44
2022-07-29T23:54:33.358Z,99183.97
2022-07-29T23:57:03.191Z,99182.88
2022-07-29T23:59:30.563Z,99176.59
